createdAt,value
2022-12-23T00:00:20.444Z,100432.72
2022-12-23T00:02:48.366Z,100428.84
2022-12-23T00:05:16.119Z,100427.41
2022-12-23T00:07:44.922Z,100418.53
2022-12-23T00:10:14.876Z,100419.31
2022-12-23T00:13:01.221Z,100418.81
2022-12-23T00:15:29.212Z,100408.22
2022-12-23T00:17:57.027Z,100403.94
2022-12-23T00:20:24.799Z,100404.41
2022-12-23T00:23:05.106Z,100409.81
2022-12-23T00:25:40.839Z,100412.06
2022-12-23T00:28:11.364Z,100411.38
2022-12-23T00:30:58.827Z,100412.50
2022-12-23T00:33:29.619Z,100419.81
2022-12-23T00:35:57.770Z,100420.78
2022-12-23T00:38:45.105Z,100426.22
2022-12-23T00:41:37.214Z,100422.38
2022-12-23T00:44:05.173Z,100417.06
2022-12-23T00:46:33.199Z,100415.94
2022-12-23T00:49:19.798Z,100421.66
2022-12-23T00:51:47.894Z,100411.78
2022-12-23T00:54:16.029Z,100401.75
2022-12-23T00:56:43.645Z,100402.41
2022-12-23T00:59:11.779Z,100394.44
2022-12-23T01:01:58.490Z,100394.66
2022-12-23T01:04:45.119Z,100398.16
2022-12-23T01:07:12.894Z,100406.50
2022-12-23T01:09:40.923Z,100400.03
2022-12-23T01:12:09.003Z,100404.06
2022-12-23T01:14:36.772Z,100402.87
2022-12-23T01:17:07.035Z,100401.44
2022-12-23T01:19:35.526Z,100400.28
2022-12-23T01:22:03.444Z,100396.00
2022-12-23T01:24:32.557Z,100400.00
2022-12-23T01:27:00.798Z,100394.91
2022-12-23T01:29:29.027Z,100394.56
2022-12-23T01:31:57.107Z,100389.84
2022-12-23T01:34:24.732Z,100389.84
2022-12-23T01:36:52.275Z,100397.47
2022-12-23T01:39:20.158Z,100404.00
2022-12-23T01:42:06.051Z,100407.59
2022-12-23T01:44:54.442Z,100412.00
2022-12-23T01:47:26.829Z,100406.72
2022-12-23T01:50:07.434Z,100398.03
2022-12-23T01:52:43.483Z,100390.41
2022-12-23T01:55:14.212Z,100393.53
2022-12-23T01:57:43.422Z,100399.16
2022-12-23T02:00:31.094Z,100402.44
2022-12-23T02:03:18.027Z,100400.84
2022-12-23T02:05:46.334Z,100390.16
2022-12-23T02:08:37.013Z,100390.97
2022-12-23T02:11:16.321Z,100391.97
2022-12-23T02:14:35.653Z,100387.13
2022-12-23T02:17:37.070Z,100391.06
2022-12-23T02:20:43.901Z,100397.88
2022-12-23T02:23:38.296Z,100394.03
2022-12-23T02:26:30.799Z,100388.38
2022-12-23T02:29:44.940Z,100393.59
2022-12-23T02:32:23.937Z,100393.66
2022-12-23T02:34:54.031Z,100390.28
2022-12-23T02:37:33.072Z,100379.75
2022-12-23T02:40:03.944Z,100374.56
2022-12-23T02:42:35.460Z,100375.47
2022-12-23T02:45:18.793Z,100380.59
2022-12-23T02:48:14.429Z,100402.09
2022-12-23T02:50:45.171Z,100392.19
2022-12-23T02:53:21.444Z,100383.50
2022-12-23T02:55:51.807Z,100397.16
2022-12-23T02:58:24.940Z,100386.13
2022-12-23T03:00:53.700Z,100385.22
2022-12-23T03:03:22.362Z,100384.91
2022-12-23T03:05:51.476Z,100388.81
2022-12-23T03:08:35.076Z,100378.28
2022-12-23T03:11:12.216Z,100382.56
2022-12-23T03:13:57.590Z,100382.63
2022-12-23T03:17:02.898Z,100384.88
2022-12-23T03:19:42.247Z,100386.91
2022-12-23T03:22:10.043Z,100371.06
2022-12-23T03:24:53.653Z,100366.25
2022-12-23T03:27:34.004Z,100361.31
2022-12-23T03:30:05.227Z,100361.06
2022-12-23T03:32:39.180Z,100368.03
2022-12-23T03:35:10.401Z,100359.13
2022-12-23T03:37:44.236Z,100355.56
2022-12-23T03:40:22.680Z,100367.59
2022-12-23T03:42:57.884Z,100363.97
2022-12-23T03:45:39.764Z,100361.66
2022-12-23T03:48:24.129Z,100369.56
2022-12-23T03:50:56.838Z,100364.62
2022-12-23T03:53:30.544Z,100362.19
2022-12-23T03:56:10.553Z,100369.16
2022-12-23T03:59:03.428Z,100359.16
2022-12-23T04:01:34.092Z,100363.44
2022-12-23T04:04:10.392Z,100361.75
2022-12-23T04:06:58.299Z,100353.91
2022-12-23T04:09:28.654Z,100355.91
2022-12-23T04:11:58.261Z,100352.87
2022-12-23T04:14:29.144Z,100362.06
2022-12-23T04:16:59.360Z,100364.53
2022-12-23T04:19:27.417Z,100363.09
2022-12-23T04:21:57.795Z,100359.81
2022-12-23T04:24:25.328Z,100359.25
2022-12-23T04:26:52.860Z,100354.53
2022-12-23T04:29:20.727Z,100360.72
2022-12-23T04:31:48.526Z,100353.19
2022-12-23T04:34:16.262Z,100353.50
2022-12-23T04:36:44.120Z,100343.88
2022-12-23T04:39:11.820Z,100339.53
2022-12-23T04:41:39.484Z,100337.66
2022-12-23T04:44:07.466Z,100341.25
2022-12-23T04:46:35.035Z,100338.31
2022-12-23T04:49:04.862Z,100346.19
2022-12-23T04:51:33.034Z,100342.94
2022-12-23T04:54:00.673Z,100330.75
2022-12-23T04:56:28.308Z,100336.09
2022-12-23T04:58:56.230Z,100336.41
2022-12-23T05:01:23.972Z,100337.25
2022-12-23T05:03:51.517Z,100336.91
2022-12-23T05:06:19.480Z,100341.09
2022-12-23T05:08:47.142Z,100342.97
2022-12-23T05:11:14.667Z,100345.34
2022-12-23T05:13:42.583Z,100343.44
2022-12-23T05:16:10.188Z,100344.75
2022-12-23T05:18:38.301Z,100349.47
2022-12-23T05:21:06.185Z,100343.28
2022-12-23T05:23:33.856Z,100355.19
2022-12-23T05:26:01.591Z,100348.03
2022-12-23T05:28:29.726Z,100348.87
2022-12-23T05:31:06.663Z,100355.44
2022-12-23T05:33:35.528Z,100348.38
2022-12-23T05:36:03.954Z,100352.66
2022-12-23T05:38:31.592Z,100357.44
2022-12-23T05:40:59.852Z,100358.59
2022-12-23T05:43:27.441Z,100354.94
2022-12-23T05:45:55.200Z,100348.47
2022-12-23T05:48:23.185Z,100356.38
2022-12-23T05:50:52.452Z,100355.66
2022-12-23T05:53:20.923Z,100356.47
2022-12-23T05:55:48.923Z,100345.31
2022-12-23T05:58:17.207Z,100350.50
2022-12-23T06:00:44.919Z,100340.84
2022-12-23T06:03:12.993Z,100344.47
2022-12-23T06:05:43.459Z,100353.97
2022-12-23T06:08:11.209Z,100348.03
2022-12-23T06:10:39.764Z,100352.75
2022-12-23T06:13:07.625Z,100357.66
2022-12-23T06:15:35.189Z,100361.72
2022-12-23T06:18:03.073Z,100366.00
2022-12-23T06:20:30.793Z,100367.03
2022-12-23T06:22:58.398Z,100368.59
2022-12-23T06:25:26.317Z,100369.97
2022-12-23T06:27:53.894Z,100366.22
2022-12-23T06:30:22.399Z,100364.31
2022-12-23T06:32:50.392Z,100364.41
2022-12-23T06:35:18.061Z,100364.06
2022-12-23T06:37:46.007Z,100368.00
2022-12-23T06:40:15.061Z,100367.81
2022-12-23T06:42:42.608Z,100365.56
2022-12-23T06:45:10.675Z,100363.44
2022-12-23T06:47:38.525Z,100361.53
2022-12-23T06:50:09.022Z,100361.72
2022-12-23T06:52:37.696Z,100364.09
2022-12-23T06:55:06.041Z,100374.09
2022-12-23T06:57:33.667Z,100375.34
2022-12-23T07:00:05.361Z,100385.66
2022-12-23T07:02:33.765Z,100381.38
2022-12-23T07:05:01.483Z,100377.28
2022-12-23T07:07:29.178Z,100384.44
2022-12-23T07:09:58.689Z,100387.13
2022-12-23T07:12:26.348Z,100390.66
2022-12-23T07:14:53.899Z,100385.34
2022-12-23T07:17:21.745Z,100388.06
2022-12-23T07:19:50.352Z,100397.91
2022-12-23T07:22:17.927Z,100391.75
2022-12-23T07:24:45.850Z,100393.37
2022-12-23T07:27:13.613Z,100393.84
2022-12-23T07:29:41.263Z,100387.81
2022-12-23T07:32:09.422Z,100396.37
2022-12-23T07:34:37.092Z,100393.78
2022-12-23T07:37:04.750Z,100391.88
2022-12-23T07:39:32.771Z,100392.09
2022-12-23T07:42:24.942Z,100393.69
2022-12-23T07:44:48.282Z,100399.72
2022-12-23T07:47:15.854Z,100394.19
2022-12-23T07:49:43.533Z,100400.03
2022-12-23T07:52:11.367Z,100407.47
2022-12-23T07:54:38.962Z,100405.19
2022-12-23T07:57:06.592Z,100405.59
2022-12-23T07:59:34.444Z,100410.28
2022-12-23T08:02:02.393Z,100412.19
2022-12-23T08:04:30.673Z,100433.09
2022-12-23T08:06:58.187Z,100433.87
2022-12-23T08:09:25.712Z,100431.59
2022-12-23T08:11:53.577Z,100442.91
2022-12-23T08:14:21.093Z,100438.84
2022-12-23T08:16:48.796Z,100434.81
2022-12-23T08:19:16.865Z,100439.69
2022-12-23T08:21:44.659Z,100440.16
2022-12-23T08:24:12.526Z,100436.69
2022-12-23T08:26:40.396Z,100434.47
2022-12-23T08:29:07.988Z,100429.03
2022-12-23T08:31:35.665Z,100435.47
2022-12-23T08:34:04.078Z,100438.28
2022-12-23T08:36:33.867Z,100433.13
2022-12-23T08:39:05.143Z,100432.88
2022-12-23T08:41:37.599Z,100431.75
2022-12-23T08:44:05.331Z,100426.66
2022-12-23T08:46:34.233Z,100424.97
2022-12-23T08:49:01.962Z,100421.03
2022-12-23T08:51:29.621Z,100410.09
2022-12-23T08:54:00.800Z,100415.66
2022-12-23T08:56:32.463Z,100409.28
2022-12-23T08:59:01.105Z,100404.62
2022-12-23T09:01:32.076Z,100406.87
2022-12-23T09:04:09.238Z,100405.59
2022-12-23T09:06:40.842Z,100400.00
2022-12-23T09:09:10.701Z,100397.63
2022-12-23T09:11:38.687Z,100393.81
2022-12-23T09:14:08.609Z,100395.00
2022-12-23T09:16:37.345Z,100396.72
2022-12-23T09:19:05.056Z,100391.34
2022-12-23T09:21:32.676Z,100394.41
2022-12-23T09:24:00.861Z,100389.78
2022-12-23T09:26:31.611Z,100393.03
2022-12-23T09:28:59.962Z,100388.03
2022-12-23T09:31:34.352Z,100388.09
2022-12-23T09:34:04.436Z,100384.78
2022-12-23T09:36:32.388Z,100370.69
2022-12-23T09:38:59.951Z,100379.22
2022-12-23T09:41:43.816Z,100379.09
2022-12-23T09:44:47.472Z,100380.25
2022-12-23T09:47:19.860Z,100378.22
2022-12-23T09:50:24.069Z,100384.12
2022-12-23T09:53:04.114Z,100376.66
2022-12-23T09:56:10.975Z,100368.12
2022-12-23T09:58:43.288Z,100363.25
2022-12-23T10:01:42.960Z,100355.94
2022-12-23T10:04:58.343Z,100346.34
2022-12-23T10:07:39.385Z,100343.75
2022-12-23T10:10:32.707Z,100348.03
2022-12-23T10:13:06.004Z,100347.41
2022-12-23T10:15:41.424Z,100336.94
2022-12-23T10:18:20.201Z,100354.66
2022-12-23T10:20:55.993Z,100340.56
2022-12-23T10:23:37.842Z,100344.19
2022-12-23T10:26:24.378Z,100331.97
2022-12-23T10:29:08.065Z,100324.28
2022-12-23T10:32:04.747Z,100335.47
2022-12-23T10:35:13.853Z,100332.31
2022-12-23T10:38:11.138Z,100327.19
2022-12-23T10:40:54.606Z,100333.84
2022-12-23T10:43:35.720Z,100331.19
2022-12-23T10:46:31.050Z,100327.44
2022-12-23T10:49:17.218Z,100315.88
2022-12-23T10:51:54.950Z,100301.31
2022-12-23T10:54:44.197Z,100289.25
2022-12-23T10:57:13.617Z,100288.69
2022-12-23T10:59:43.984Z,100277.78
2022-12-23T11:02:11.642Z,100271.50
2022-12-23T11:04:47.788Z,100258.63
2022-12-23T11:10:33.103Z,100255.97
2022-12-23T11:13:01.855Z,100253.78
2022-12-23T11:15:40.672Z,100243.16
2022-12-23T11:18:12.510Z,100243.63
2022-12-23T11:20:43.220Z,100236.28
2022-12-23T11:23:27.137Z,100234.25
2022-12-23T11:26:22.631Z,100231.62
2022-12-23T11:28:53.339Z,100241.41
2022-12-23T11:31:32.583Z,100227.84
2022-12-23T11:34:16.418Z,100227.53
2022-12-23T11:36:54.708Z,100226.03
2022-12-23T11:39:33.887Z,100222.38
2022-12-23T11:42:11.884Z,100221.56
2022-12-23T11:44:43.347Z,100214.19
2022-12-23T11:47:22.952Z,100212.25
2022-12-23T11:49:58.955Z,100211.94
2022-12-23T11:52:29.411Z,100209.28
2022-12-23T11:55:02.546Z,100205.72
2022-12-23T11:57:49.036Z,100208.09
2022-12-23T12:00:55.390Z,100202.69
2022-12-23T12:03:28.881Z,100202.97
2022-12-23T12:06:00.977Z,100198.03
2022-12-23T12:08:33.679Z,100192.97
2022-12-23T12:11:18.395Z,100207.47
2022-12-23T12:13:50.356Z,100206.25
2022-12-23T12:16:21.414Z,100208.66
2022-12-23T12:18:55.264Z,100205.69
2022-12-23T12:21:28.723Z,100204.03
2022-12-23T12:24:19.240Z,100207.03
2022-12-23T12:26:52.487Z,100212.69
2022-12-23T12:29:37.707Z,100216.87
2022-12-23T12:32:19.367Z,100217.06
2022-12-23T12:35:02.078Z,100213.19
2022-12-23T12:37:47.448Z,100208.41
2022-12-23T12:40:58.112Z,100211.28
2022-12-23T12:43:34.499Z,100217.56
2022-12-23T12:46:22.147Z,100217.75
2022-12-23T12:49:26.983Z,100230.72
2022-12-23T12:51:57.946Z,100246.25
2022-12-23T12:54:40.475Z,100241.47
2022-12-23T12:57:15.096Z,100228.09
2022-12-23T12:59:44.699Z,100222.91
2022-12-23T13:02:27.818Z,100227.41
2022-12-23T13:05:01.531Z,100225.22
2022-12-23T13:07:32.302Z,100224.84
2022-12-23T13:10:37.746Z,100232.75
2022-12-23T13:13:36.565Z,100233.19
2022-12-23T13:16:10.732Z,100236.31
2022-12-23T13:19:00.443Z,100244.50
2022-12-23T13:22:10.529Z,100248.50
2022-12-23T13:25:05.997Z,100242.03
2022-12-23T13:27:47.220Z,100246.75
2022-12-23T13:30:19.231Z,100234.88
2022-12-23T13:33:09.878Z,100233.09
2022-12-23T13:36:05.724Z,100225.19
2022-12-23T13:38:56.175Z,100233.75
2022-12-23T13:41:35.464Z,100234.28
2022-12-23T13:44:07.909Z,100235.69
2022-12-23T13:47:09.839Z,100238.22
2022-12-23T13:49:40.399Z,100219.81
2022-12-23T13:52:23.242Z,100222.72
2022-12-23T13:55:05.897Z,100219.47
2022-12-23T13:58:00.000Z,100213.19
2022-12-23T14:00:31.559Z,100217.50
2022-12-23T14:03:02.724Z,100212.94
2022-12-23T14:05:35.414Z,100208.25
2022-12-23T14:08:20.957Z,100208.91
2022-12-23T14:11:02.613Z,100214.53
2022-12-23T14:13:37.977Z,100205.47
2022-12-23T14:16:22.925Z,100201.81
2022-12-23T14:19:15.834Z,100203.81
2022-12-23T14:22:21.361Z,100211.69
2022-12-23T14:25:18.627Z,100209.53
2022-12-23T14:28:37.650Z,100219.78
2022-12-23T14:31:05.995Z,100231.47
2022-12-23T14:33:37.401Z,100234.22
2022-12-23T14:36:14.369Z,100229.31
2022-12-23T14:38:42.188Z,100241.22
2022-12-23T14:41:37.602Z,100233.72
2022-12-23T14:44:41.338Z,100235.03
2022-12-23T14:47:33.230Z,100240.72
2022-12-23T14:50:33.196Z,100236.59
2022-12-23T14:53:20.780Z,100241.88
2022-12-23T14:55:51.131Z,100236.75
2022-12-23T14:58:29.134Z,100245.78
2022-12-23T15:01:09.090Z,100241.88
2022-12-23T15:03:48.170Z,100250.94
2022-12-23T15:06:20.683Z,100258.78
2022-12-23T15:08:52.553Z,100252.66
2022-12-23T15:11:31.065Z,100257.72
2022-12-23T15:14:03.388Z,100250.59
2022-12-23T15:16:39.751Z,100237.37
2022-12-23T15:19:23.819Z,100237.66
2022-12-23T15:22:15.299Z,100233.53
2022-12-23T15:24:47.750Z,100237.75
2022-12-23T15:27:27.184Z,100225.94
2022-12-23T15:29:56.347Z,100235.62
2022-12-23T15:32:25.501Z,100228.88
2022-12-23T15:35:02.478Z,100223.69
2022-12-23T15:37:31.647Z,100218.94
2022-12-23T15:40:11.466Z,100216.19
2022-12-23T15:42:47.463Z,100217.63
2022-12-23T15:45:38.151Z,100209.00
2022-12-23T15:48:22.634Z,100203.19
2022-12-23T15:50:53.427Z,100217.19
2022-12-23T15:53:21.364Z,100218.06
2022-12-23T15:55:50.102Z,100219.34
2022-12-23T15:58:23.582Z,100218.06
2022-12-23T16:00:58.030Z,100218.75
2022-12-23T16:03:37.451Z,100224.69
2022-12-23T16:06:17.168Z,100226.16
2022-12-23T16:08:47.190Z,100218.78
2022-12-23T16:11:17.969Z,100222.94
2022-12-23T16:14:01.378Z,100217.84
2022-12-23T16:16:42.331Z,100216.63
2022-12-23T16:19:41.319Z,100217.03
2022-12-23T16:22:24.800Z,100216.00
2022-12-23T16:25:12.976Z,100217.56
2022-12-23T16:28:06.632Z,100226.94
2022-12-23T16:30:41.845Z,100235.66
2022-12-23T16:33:37.024Z,100246.47
2022-12-23T16:36:20.571Z,100245.94
2022-12-23T16:38:49.835Z,100245.75
2022-12-23T16:41:19.313Z,100244.94
2022-12-23T16:43:52.056Z,100249.34
2022-12-23T16:46:22.582Z,100230.00
2022-12-23T16:48:53.336Z,100231.91
2022-12-23T16:51:23.617Z,100230.78
2022-12-23T16:53:55.094Z,100235.06
2022-12-23T16:56:35.742Z,100235.19
2022-12-23T16:59:04.427Z,100235.47
2022-12-23T17:01:35.039Z,100248.06
2022-12-23T17:06:30.956Z,100237.81
2022-12-23T17:08:58.827Z,100237.53
2022-12-23T17:11:56.375Z,100240.50
2022-12-23T17:14:25.516Z,100228.47
2022-12-23T17:16:53.283Z,100236.06
2022-12-23T17:19:28.052Z,100231.44
2022-12-23T17:22:02.999Z,100242.91
2022-12-23T17:24:30.702Z,100234.81
2022-12-23T17:26:58.594Z,100237.00
2022-12-23T17:29:26.625Z,100233.78
2022-12-23T17:31:54.627Z,100229.25
2022-12-23T17:34:24.529Z,100220.72
2022-12-23T17:36:52.692Z,100221.31
2022-12-23T17:39:21.712Z,100221.59
2022-12-23T17:41:50.117Z,100220.03
2022-12-23T17:44:19.131Z,100212.19
2022-12-23T17:46:47.631Z,100217.09
2022-12-23T17:49:15.538Z,100213.25
2022-12-23T17:51:43.425Z,100212.19
2022-12-23T17:54:25.021Z,100209.13
2022-12-23T17:56:53.281Z,100210.84
2022-12-23T17:59:21.693Z,100207.19
2022-12-23T18:01:50.235Z,100202.22
2022-12-23T18:04:18.320Z,100206.63
2022-12-23T18:06:45.845Z,100203.78
2022-12-23T18:09:13.403Z,100199.69
2022-12-23T18:11:44.836Z,100201.56
2022-12-23T18:14:28.026Z,100205.72
2022-12-23T18:16:56.239Z,100197.31
2022-12-23T18:19:24.158Z,100198.47
2022-12-23T18:21:52.450Z,100202.63
2022-12-23T18:24:20.310Z,100210.03
2022-12-23T18:26:47.895Z,100207.78
2022-12-23T18:29:16.523Z,100211.25
2022-12-23T18:31:52.174Z,100206.47
2022-12-23T18:34:20.835Z,100199.69
2022-12-23T18:36:49.006Z,100197.78
2022-12-23T18:39:16.932Z,100204.19
2022-12-23T18:41:44.884Z,100199.94
2022-12-23T18:44:21.036Z,100203.63
2022-12-23T18:46:49.430Z,100193.63
2022-12-23T18:49:17.714Z,100191.62
2022-12-23T18:51:46.091Z,100184.94
2022-12-23T18:54:17.261Z,100178.16
2022-12-23T18:56:45.405Z,100172.03
2022-12-23T18:59:22.513Z,100169.19
2022-12-23T19:01:56.239Z,100176.69
2022-12-23T19:04:23.974Z,100177.41
2022-12-23T19:06:51.765Z,100180.28
2022-12-23T19:09:22.459Z,100184.75
2022-12-23T19:11:51.550Z,100185.34
2022-12-23T19:14:19.481Z,100177.06
2022-12-23T19:16:51.608Z,100180.53
2022-12-23T19:19:21.194Z,100188.03
2022-12-23T19:21:48.727Z,100182.13
2022-12-23T19:24:16.400Z,100192.09
2022-12-23T19:26:44.272Z,100206.84
2022-12-23T19:29:12.027Z,100205.81
2022-12-23T19:31:40.560Z,100206.41
2022-12-23T19:34:14.614Z,100201.97
2022-12-23T19:36:43.657Z,100208.31
2022-12-23T19:39:16.664Z,100206.50
2022-12-23T19:41:46.251Z,100213.41
2022-12-23T19:44:14.732Z,100204.03
2022-12-23T19:46:42.380Z,100200.47
2022-12-23T19:49:15.726Z,100205.12
2022-12-23T19:51:47.716Z,100205.38
2022-12-23T19:54:15.659Z,100202.00
2022-12-23T19:56:43.472Z,100215.53
2022-12-23T19:59:12.710Z,100210.37
2022-12-23T20:01:40.380Z,100211.13
2022-12-23T20:04:09.500Z,100216.34
2022-12-23T20:06:38.431Z,100219.75
2022-12-23T20:09:07.546Z,100226.28
2022-12-23T20:11:39.240Z,100229.66
2022-12-23T20:14:07.941Z,100230.13
2022-12-23T20:16:37.269Z,100225.22
2022-12-23T20:19:05.323Z,100219.72
2022-12-23T20:21:34.410Z,100229.09
2022-12-23T20:24:02.268Z,100229.84
2022-12-23T20:26:30.809Z,100228.03
2022-12-23T20:28:59.293Z,100234.00
2022-12-23T20:31:29.933Z,100234.94
2022-12-23T20:33:58.531Z,100235.75
2022-12-23T20:36:29.309Z,100237.66
2022-12-23T20:38:57.515Z,100242.84
2022-12-23T20:41:28.330Z,100247.47
2022-12-23T20:44:32.295Z,100251.00
2022-12-23T20:46:44.441Z,100251.25
2022-12-23T20:49:12.249Z,100250.59
2022-12-23T20:51:39.941Z,100257.41
2022-12-23T20:54:07.913Z,100253.81
2022-12-23T20:56:35.489Z,100259.00
2022-12-23T20:59:04.008Z,100258.00
2022-12-23T21:01:36.255Z,100253.97
2022-12-23T21:04:06.914Z,100253.03
2022-12-23T21:06:35.592Z,100245.50
2022-12-23T21:09:06.853Z,100249.38
2022-12-23T21:11:37.512Z,100246.47
2022-12-23T21:14:07.459Z,100230.09
2022-12-23T21:16:36.703Z,100234.78
2022-12-23T21:19:06.409Z,100237.34
2022-12-23T21:21:34.870Z,100238.72
2022-12-23T21:24:04.765Z,100231.69
2022-12-23T21:26:34.177Z,100227.78
2022-12-23T21:29:04.372Z,100223.03
2022-12-23T21:31:34.018Z,100221.34
2022-12-23T21:34:02.502Z,100219.44
2022-12-23T21:36:33.887Z,100220.88
2022-12-23T21:39:02.581Z,100223.97
2022-12-23T21:41:34.954Z,100230.28
2022-12-23T21:44:03.803Z,100225.59
2022-12-23T21:46:31.776Z,100226.87
2022-12-23T21:48:59.969Z,100225.34
2022-12-23T21:51:40.093Z,100226.53
2022-12-23T21:54:10.404Z,100227.81
2022-12-23T21:56:39.451Z,100232.00
2022-12-23T21:59:12.184Z,100230.56
2022-12-23T22:01:41.248Z,100226.69
2022-12-23T22:04:09.256Z,100218.06
2022-12-23T22:06:40.681Z,100219.78
2022-12-23T22:09:08.917Z,100227.44
2022-12-23T22:11:37.969Z,100231.81
2022-12-23T22:14:07.888Z,100230.84
2022-12-23T22:16:36.481Z,100212.97
2022-12-23T22:19:06.857Z,100201.72
2022-12-23T22:21:35.819Z,100204.06
2022-12-23T22:24:03.616Z,100205.91
2022-12-23T22:26:32.852Z,100206.50
2022-12-23T22:29:02.551Z,100200.75
2022-12-23T22:31:35.627Z,100214.94
2022-12-23T22:34:04.637Z,100218.16
2022-12-23T22:36:32.985Z,100221.41
2022-12-23T22:39:02.059Z,100216.44
2022-12-23T22:41:30.584Z,100215.66
2022-12-23T22:43:59.257Z,100220.97
2022-12-23T22:46:27.459Z,100202.87
2022-12-23T22:48:56.391Z,100203.69
2022-12-23T22:51:29.918Z,100204.59
2022-12-23T22:53:58.042Z,100207.16
2022-12-23T22:56:25.917Z,100208.81
2022-12-23T22:58:53.997Z,100203.47
2022-12-23T23:01:22.483Z,100216.75
2022-12-23T23:03:56.924Z,100220.84
2022-12-23T23:06:26.890Z,100222.19
2022-12-23T23:08:55.446Z,100217.25
2022-12-23T23:11:24.132Z,100207.25
2022-12-23T23:13:52.657Z,100198.19
2022-12-23T23:16:20.715Z,100198.41
2022-12-23T23:18:49.837Z,100201.53
2022-12-23T23:21:18.002Z,100194.06
2022-12-23T23:23:45.774Z,100201.09
2022-12-23T23:26:13.743Z,100189.66
2022-12-23T23:28:42.459Z,100183.88
2022-12-23T23:31:40.421Z,100180.78
2022-12-23T23:33:58.336Z,100165.97
2022-12-23T23:36:25.983Z,100164.09
2022-12-23T23:38:53.581Z,100173.66
2022-12-23T23:41:23.505Z,100171.00
2022-12-23T23:43:52.134Z,100166.75
2022-12-23T23:46:19.797Z,100154.44
2022-12-23T23:48:47.998Z,100151.00
2022-12-23T23:51:15.605Z,100145.47
2022-12-23T23:53:43.463Z,100136.28
2022-12-23T23:56:11.329Z,100127.69
2022-12-23T23:58:39.028Z,100125.13
